sensor_id;sensor_type;location;lat;lon;timestamp;temperature;humidity
431;DHT22;202;48.764;9.172;2023-03-16T01:28:27;4.80;64.00
431;DHT22;202;48.764;9.172;2023-03-16T01:31:01;4.80;64.00
431;DHT22;202;48.764;9.172;2023-03-16T01:33:37;4.70;63.90
431;DHT22;202;48.764;9.172;2023-03-16T01:36:06;4.70;63.80
431;DHT22;202;48.764;9.172;2023-03-16T01:38:33;4.70;63.90
431;DHT22;202;48.764;9.172;2023-03-16T01:41:00;4.60;64.70
431;DHT22;202;48.764;9.172;2023-03-16T01:43:31;4.70;65.20
431;DHT22;202;48.764;9.172;2023-03-16T01:46:14;4.70;65.20
431;DHT22;202;48.764;9.172;2023-03-16T01:48:46;4.70;64.90
431;DHT22;202;48.764;9.172;2023-03-16T01:51:18;4.60;64.50
431;DHT22;202;48.764;9.172;2023-03-16T01:53:48;4.60;64.00
431;DHT22;202;48.764;9.172;2023-03-16T01:56:19;4.50;63.80
431;DHT22;202;48.764;9.172;2023-03-16T01:58:51;4.40;63.80
431;DHT22;202;48.764;9.172;2023-03-16T02:01:23;4.40;63.70
431;DHT22;202;48.764;9.172;2023-03-16T02:03:55;4.40;63.60
431;DHT22;202;48.764;9.172;2023-03-16T02:06:23;4.10;64.00
431;DHT22;202;48.764;9.172;2023-03-16T02:08:50;3.90;65.90
431;DHT22;202;48.764;9.172;2023-03-16T02:11:21;3.80;66.70
431;DHT22;202;48.764;9.172;2023-03-16T02:13:50;3.90;66.50
431;DHT22;202;48.764;9.172;2023-03-16T02:16:18;3.90;64.60
431;DHT22;202;48.764;9.172;2023-03-16T02:18:47;3.90;65.60
431;DHT22;202;48.764;9.172;2023-03-16T02:21:20;3.80;64.90
431;DHT22;202;48.764;9.172;2023-03-16T02:23:51;3.80;65.90
431;DHT22;202;48.764;9.172;2023-03-16T02:26:24;3.90;66.00
431;DHT22;202;48.764;9.172;2023-03-16T02:29:05;3.80;65.40
431;DHT22;202;48.764;9.172;2023-03-16T02:31:37;3.90;64.70
431;DHT22;202;48.764;9.172;2023-03-16T02:34:05;3.90;65.20
431;DHT22;202;48.764;9.172;2023-03-16T02:36:32;3.90;63.80
431;DHT22;202;48.764;9.172;2023-03-16T02:39:00;4.00;63.50
431;DHT22;202;48.764;9.172;2023-03-16T02:41:26;4.00;63.30
431;DHT22;202;48.764;9.172;2023-03-16T02:43:57;3.90;64.20
431;DHT22;202;48.764;9.172;2023-03-16T02:46:28;3.90;63.20
431;DHT22;202;48.764;9.172;2023-03-16T02:49:04;3.90;64.20
431;DHT22;202;48.764;9.172;2023-03-16T02:51:33;3.60;64.30
431;DHT22;202;48.764;9.172;2023-03-16T02:53:59;3.70;64.70
431;DHT22;202;48.764;9.172;2023-03-16T02:56:26;3.60;64.70
431;DHT22;202;48.764;9.172;2023-03-16T02:58:53;3.70;65.30
431;DHT22;202;48.764;9.172;2023-03-16T03:01:21;3.60;65.20
431;DHT22;202;48.764;9.172;2023-03-16T03:03:48;3.70;65.30
431;DHT22;202;48.764;9.172;2023-03-16T03:06:16;3.60;63.90
431;DHT22;202;48.764;9.172;2023-03-16T03:08:43;3.70;65.40
431;DHT22;202;48.764;9.172;2023-03-16T03:11:10;3.70;64.20
431;DHT22;202;48.764;9.172;2023-03-16T03:13:37;3.70;64.50
431;DHT22;202;48.764;9.172;2023-03-16T03:16:04;3.70;63.50
431;DHT22;202;48.764;9.172;2023-03-16T03:18:32;3.70;64.90
431;DHT22;202;48.764;9.172;2023-03-16T03:21:02;3.90;63.90
431;DHT22;202;48.764;9.172;2023-03-16T03:23:30;3.90;63.20
431;DHT22;202;48.764;9.172;2023-03-16T03:25:57;3.70;64.50
431;DHT22;202;48.764;9.172;2023-03-16T03:28:28;3.70;64.30
431;DHT22;202;48.764;9.172;2023-03-16T03:30:55;3.70;63.00
431;DHT22;202;48.764;9.172;2023-03-16T03:33:22;3.70;64.50
431;DHT22;202;48.764;9.172;2023-03-16T03:35:54;3.60;63.50
431;DHT22;202;48.764;9.172;2023-03-16T03:38:22;3.60;64.00
431;DHT22;202;48.764;9.172;2023-03-16T03:40:51;3.70;64.30
431;DHT22;202;48.764;9.172;2023-03-16T03:43:19;3.70;63.70
431;DHT22;202;48.764;9.172;2023-03-16T03:45:46;3.70;63.40
431;DHT22;202;48.764;9.172;2023-03-16T03:48:13;3.60;64.10
431;DHT22;202;48.764;9.172;2023-03-16T03:50:39;3.50;64.80
431;DHT22;202;48.764;9.172;2023-03-16T03:53:06;3.40;66.50
431;DHT22;202;48.764;9.172;2023-03-16T03:55:33;3.50;66.10
431;DHT22;202;48.764;9.172;2023-03-16T03:58:02;3.70;65.90
431;DHT22;202;48.764;9.172;2023-03-16T04:00:29;3.90;64.60
431;DHT22;202;48.764;9.172;2023-03-16T04:02:56;3.90;63.20
431;DHT22;202;48.764;9.172;2023-03-16T04:05:24;3.90;62.40
431;DHT22;202;48.764;9.172;2023-03-16T04:07:52;3.70;63.00
431;DHT22;202;48.764;9.172;2023-03-16T04:10:22;3.60;63.60
431;DHT22;202;48.764;9.172;2023-03-16T04:12:49;3.60;64.80
431;DHT22;202;48.764;9.172;2023-03-16T04:15:18;3.80;64.50
431;DHT22;202;48.764;9.172;2023-03-16T04:17:46;3.90;64.00
431;DHT22;202;48.764;9.172;2023-03-16T04:20:13;3.90;63.20
431;DHT22;202;48.764;9.172;2023-03-16T04:22:44;4.00;62.50
431;DHT22;202;48.764;9.172;2023-03-16T04:25:14;4.00;62.10
431;DHT22;202;48.764;9.172;2023-03-16T04:27:42;3.80;62.20
431;DHT22;202;48.764;9.172;2023-03-16T04:30:12;3.90;62.50
431;DHT22;202;48.764;9.172;2023-03-16T04:32:43;3.90;61.80
431;DHT22;202;48.764;9.172;2023-03-16T04:35:10;3.90;62.10
431;DHT22;202;48.764;9.172;2023-03-16T04:37:37;3.80;60.90
431;DHT22;202;48.764;9.172;2023-03-16T04:40:05;3.70;62.30
431;DHT22;202;48.764;9.172;2023-03-16T04:42:34;3.60;62.60
431;DHT22;202;48.764;9.172;2023-03-16T04:45:02;3.60;62.30
431;DHT22;202;48.764;9.172;2023-03-16T04:47:29;3.50;62.80
431;DHT22;202;48.764;9.172;2023-03-16T04:50:00;3.40;63.10
431;DHT22;202;48.764;9.172;2023-03-16T04:52:27;3.40;63.70
431;DHT22;202;48.764;9.172;2023-03-16T04:54:54;3.40;63.90
431;DHT22;202;48.764;9.172;2023-03-16T04:57:21;3.50;63.00
431;DHT22;202;48.764;9.172;2023-03-16T04:59:48;3.70;63.00
431;DHT22;202;48.764;9.172;2023-03-16T05:02:18;3.80;62.00
431;DHT22;202;48.764;9.172;2023-03-16T05:04:45;3.80;60.80
431;DHT22;202;48.764;9.172;2023-03-16T05:07:13;3.80;61.60
431;DHT22;202;48.764;9.172;2023-03-16T05:09:40;3.90;61.20
431;DHT22;202;48.764;9.172;2023-03-16T05:12:08;4.00;61.00
431;DHT22;202;48.764;9.172;2023-03-16T05:14:35;4.00;60.50
431;DHT22;202;48.764;9.172;2023-03-16T05:17:02;4.00;59.80
431;DHT22;202;48.764;9.172;2023-03-16T05:19:29;4.00;60.30
431;DHT22;202;48.764;9.172;2023-03-16T05:21:56;3.90;60.30
431;DHT22;202;48.764;9.172;2023-03-16T05:24:24;3.90;60.50
431;DHT22;202;48.764;9.172;2023-03-16T05:26:51;4.00;60.40
431;DHT22;202;48.764;9.172;2023-03-16T05:29:18;4.10;60.10
431;DHT22;202;48.764;9.172;2023-03-16T05:31:47;4.10;59.90
431;DHT22;202;48.764;9.172;2023-03-16T05:34:15;4.20;59.50
431;DHT22;202;48.764;9.172;2023-03-16T05:36:43;4.10;58.70
431;DHT22;202;48.764;9.172;2023-03-16T05:39:10;4.10;59.40
431;DHT22;202;48.764;9.172;2023-03-16T05:41:39;4.00;60.30
431;DHT22;202;48.764;9.172;2023-03-16T05:44:09;3.90;59.40
431;DHT22;202;48.764;9.172;2023-03-16T05:46:36;3.80;59.70
431;DHT22;202;48.764;9.172;2023-03-16T05:49:03;3.80;60.50
431;DHT22;202;48.764;9.172;2023-03-16T05:51:41;3.80;60.60
431;DHT22;202;48.764;9.172;2023-03-16T05:54:08;3.80;60.80
431;DHT22;202;48.764;9.172;2023-03-16T05:56:35;3.70;61.50
431;DHT22;202;48.764;9.172;2023-03-16T05:59:06;3.80;61.40
431;DHT22;202;48.764;9.172;2023-03-16T06:01:38;3.90;61.10
431;DHT22;202;48.764;9.172;2023-03-16T06:04:13;3.80;61.90
431;DHT22;202;48.764;9.172;2023-03-16T06:06:40;3.90;63.10
431;DHT22;202;48.764;9.172;2023-03-16T06:09:19;3.90;62.60
431;DHT22;202;48.764;9.172;2023-03-16T06:11:51;4.00;62.50
431;DHT22;202;48.764;9.172;2023-03-16T06:14:20;3.90;61.90
431;DHT22;202;48.764;9.172;2023-03-16T06:16:51;4.00;61.30
431;DHT22;202;48.764;9.172;2023-03-16T06:19:20;4.10;60.40
431;DHT22;202;48.764;9.172;2023-03-16T06:21:52;4.10;59.90
431;DHT22;202;48.764;9.172;2023-03-16T06:25:14;4.10;60.10
431;DHT22;202;48.764;9.172;2023-03-16T06:27:54;4.20;60.30
431;DHT22;202;48.764;9.172;2023-03-16T06:30:23;4.20;59.60
431;DHT22;202;48.764;9.172;2023-03-16T06:32:49;4.20;59.50
431;DHT22;202;48.764;9.172;2023-03-16T06:35:16;4.10;59.60
431;DHT22;202;48.764;9.172;2023-03-16T06:37:43;4.20;60.00
431;DHT22;202;48.764;9.172;2023-03-16T06:40:11;4.30;59.50
431;DHT22;202;48.764;9.172;2023-03-16T06:42:38;4.50;59.00
431;DHT22;202;48.764;9.172;2023-03-16T06:45:06;4.50;59.00
431;DHT22;202;48.764;9.172;2023-03-16T06:47:40;4.70;58.00
431;DHT22;202;48.764;9.172;2023-03-16T06:50:09;4.80;57.90
431;DHT22;202;48.764;9.172;2023-03-16T06:52:39;4.80;56.40
431;DHT22;202;48.764;9.172;2023-03-16T06:55:17;4.80;56.90
431;DHT22;202;48.764;9.172;2023-03-16T06:57:55;4.90;56.50
431;DHT22;202;48.764;9.172;2023-03-16T07:00:25;5.00;56.30
431;DHT22;202;48.764;9.172;2023-03-16T07:03:12;5.00;56.10
431;DHT22;202;48.764;9.172;2023-03-16T07:06:28;5.00;55.30
431;DHT22;202;48.764;9.172;2023-03-16T07:13:45;5.20;56.50
431;DHT22;202;48.764;9.172;2023-03-16T07:22:22;7.30;50.10
431;DHT22;202;48.764;9.172;2023-03-16T07:30:55;9.10;42.50
431;DHT22;202;48.764;9.172;2023-03-16T07:34:14;9.40;42.10
431;DHT22;202;48.764;9.172;2023-03-16T07:40:03;9.60;41.10
431;DHT22;202;48.764;9.172;2023-03-16T07:42:34;10.00;37.90
431;DHT22;202;48.764;9.172;2023-03-16T07:54:35;10.50;36.90
431;DHT22;202;48.764;9.172;2023-03-16T07:57:16;10.90;34.50
431;DHT22;202;48.764;9.172;2023-03-16T08:00:15;10.80;34.40
431;DHT22;202;48.764;9.172;2023-03-16T08:03:39;11.10;36.30
431;DHT22;202;48.764;9.172;2023-03-16T08:06:48;11.50;35.10
431;DHT22;202;48.764;9.172;2023-03-16T08:09:28;11.60;34.90
431;DHT22;202;48.764;9.172;2023-03-16T08:12:28;11.90;33.90
431;DHT22;202;48.764;9.172;2023-03-16T08:18:18;12.80;32.60
431;DHT22;202;48.764;9.172;2023-03-16T09:21:30;12.30;31.60
431;DHT22;202;48.764;9.172;2023-03-16T10:03:31;12.00;31.10
431;DHT22;202;48.764;9.172;2023-03-16T10:06:07;11.70;30.10
431;DHT22;202;48.764;9.172;2023-03-16T10:08:54;11.70;30.10
431;DHT22;202;48.764;9.172;2023-03-16T10:11:40;11.60;30.90
431;DHT22;202;48.764;9.172;2023-03-16T10:17:12;11.70;30.40
431;DHT22;202;48.764;9.172;2023-03-16T10:19:55;11.90;30.90
431;DHT22;202;48.764;9.172;2023-03-16T10:22:32;12.20;30.00
431;DHT22;202;48.764;9.172;2023-03-16T10:25:07;12.00;30.00
431;DHT22;202;48.764;9.172;2023-03-16T10:27:42;11.90;30.60
431;DHT22;202;48.764;9.172;2023-03-16T10:30:23;12.00;29.60
431;DHT22;202;48.764;9.172;2023-03-16T10:33:17;11.70;29.90
431;DHT22;202;48.764;9.172;2023-03-16T10:36:08;11.60;31.30
431;DHT22;202;48.764;9.172;2023-03-16T10:38:51;11.60;29.70
431;DHT22;202;48.764;9.172;2023-03-16T10:41:33;11.40;31.10
431;DHT22;202;48.764;9.172;2023-03-16T10:44:12;11.60;31.10
431;DHT22;202;48.764;9.172;2023-03-16T10:57:31;12.00;30.40
431;DHT22;202;48.764;9.172;2023-03-16T11:00:05;12.20;31.40
431;DHT22;202;48.764;9.172;2023-03-16T11:03:12;12.40;30.90
431;DHT22;202;48.764;9.172;2023-03-16T12:13:18;12.70;27.20
431;DHT22;202;48.764;9.172;2023-03-16T15:40:01;13.30;21.00
431;DHT22;202;48.764;9.172;2023-03-16T15:48:45;13.20;24.00
431;DHT22;202;48.764;9.172;2023-03-16T15:51:20;13.40;20.90
431;DHT22;202;48.764;9.172;2023-03-16T15:53:55;13.40;20.00
431;DHT22;202;48.764;9.172;2023-03-16T16:34:12;12.90;22.40
431;DHT22;202;48.764;9.172;2023-03-16T16:38:18;12.90;22.60
431;DHT22;202;48.764;9.172;2023-03-16T16:43:06;12.90;22.60
431;DHT22;202;48.764;9.172;2023-03-16T16:46:13;12.90;22.80
431;DHT22;202;48.764;9.172;2023-03-16T17:03:01;13.10;23.60
431;DHT22;202;48.764;9.172;2023-03-16T17:05:35;13.00;24.00
431;DHT22;202;48.764;9.172;2023-03-16T17:08:21;12.90;24.30
431;DHT22;202;48.764;9.172;2023-03-16T17:10:55;12.90;24.30
431;DHT22;202;48.764;9.172;2023-03-16T17:13:35;12.90;24.30
431;DHT22;202;48.764;9.172;2023-03-16T17:16:19;12.90;24.90
431;DHT22;202;48.764;9.172;2023-03-16T17:19:19;12.90;24.70
431;DHT22;202;48.764;9.172;2023-03-16T17:21:57;13.00;25.30
431;DHT22;202;48.764;9.172;2023-03-16T17:25:00;13.00;24.90
431;DHT22;202;48.764;9.172;2023-03-16T17:30:53;12.90;25.10
431;DHT22;202;48.764;9.172;2023-03-16T17:58:42;12.20;27.10
431;DHT22;202;48.764;9.172;2023-03-16T18:20:12;12.30;29.40
431;DHT22;202;48.764;9.172;2023-03-16T18:31:08;12.10;30.00
431;DHT22;202;48.764;9.172;2023-03-16T18:34:21;12.00;29.90
431;DHT22;202;48.764;9.172;2023-03-16T18:44:21;12.00;30.40
431;DHT22;202;48.764;9.172;2023-03-16T18:54:57;11.80;31.50
431;DHT22;202;48.764;9.172;2023-03-16T18:58:39;11.90;31.50
431;DHT22;202;48.764;9.172;2023-03-16T19:02:22;11.80;31.40
431;DHT22;202;48.764;9.172;2023-03-16T19:07:43;11.70;31.80
431;DHT22;202;48.764;9.172;2023-03-16T19:12:16;11.70;32.00
431;DHT22;202;48.764;9.172;2023-03-16T19:14:16;11.50;33.10
431;DHT22;202;48.764;9.172;2023-03-16T19:17:36;11.50;33.10
431;DHT22;202;48.764;9.172;2023-03-16T19:20:36;11.40;32.20
431;DHT22;202;48.764;9.172;2023-03-16T19:27:33;11.60;31.60
431;DHT22;202;48.764;9.172;2023-03-16T19:46:58;11.50;31.40
431;DHT22;202;48.764;9.172;2023-03-16T19:52:53;11.40;30.60
431;DHT22;202;48.764;9.172;2023-03-16T19:59:28;11.50;30.50
431;DHT22;202;48.764;9.172;2023-03-16T20:22:48;10.80;32.50
431;DHT22;202;48.764;9.172;2023-03-16T20:25:15;10.80;32.90
431;DHT22;202;48.764;9.172;2023-03-16T20:27:43;10.70;32.70
431;DHT22;202;48.764;9.172;2023-03-16T20:30:15;10.80;32.80
431;DHT22;202;48.764;9.172;2023-03-16T22:29:55;10.10;36.30
431;DHT22;202;48.764;9.172;2023-03-16T22:32:24;10.10;35.90
431;DHT22;202;48.764;9.172;2023-03-16T22:34:53;10.20;36.50
431;DHT22;202;48.764;9.172;2023-03-16T22:37:23;10.00;37.10
431;DHT22;202;48.764;9.172;2023-03-16T22:39:51;9.90;38.10
431;DHT22;202;48.764;9.172;2023-03-16T22:42:26;10.10;36.90
431;DHT22;202;48.764;9.172;2023-03-16T22:44:53;10.10;36.50
431;DHT22;202;48.764;9.172;2023-03-16T22:47:20;10.10;36.60
431;DHT22;202;48.764;9.172;2023-03-16T22:49:49;10.00;36.40
431;DHT22;202;48.764;9.172;2023-03-16T22:52:16;10.00;37.00
431;DHT22;202;48.764;9.172;2023-03-16T22:54:44;10.00;37.60
431;DHT22;202;48.764;9.172;2023-03-16T22:57:12;10.00;37.30
431;DHT22;202;48.764;9.172;2023-03-16T22:59:40;10.00;37.60
431;DHT22;202;48.764;9.172;2023-03-16T23:02:11;10.00;37.90
431;DHT22;202;48.764;9.172;2023-03-16T23:04:39;10.00;38.60
431;DHT22;202;48.764;9.172;2023-03-16T23:07:10;9.90;39.00
431;DHT22;202;48.764;9.172;2023-03-16T23:09:38;9.90;39.50
431;DHT22;202;48.764;9.172;2023-03-16T23:12:09;9.90;38.60
431;DHT22;202;48.764;9.172;2023-03-16T23:14:39;10.00;38.00
431;DHT22;202;48.764;9.172;2023-03-16T23:17:14;9.80;38.80
431;DHT22;202;48.764;9.172;2023-03-16T23:19:42;9.90;38.80
431;DHT22;202;48.764;9.172;2023-03-16T23:22:11;9.80;38.50
431;DHT22;202;48.764;9.172;2023-03-16T23:24:38;9.70;39.20
431;DHT22;202;48.764;9.172;2023-03-16T23:27:13;9.60;39.30
431;DHT22;202;48.764;9.172;2023-03-16T23:29:41;9.60;39.30
431;DHT22;202;48.764;9.172;2023-03-16T23:32:09;9.60;39.30
431;DHT22;202;48.764;9.172;2023-03-16T23:34:36;9.60;39.30
431;DHT22;202;48.764;9.172;2023-03-16T23:37:02;9.60;39.70
431;DHT22;202;48.764;9.172;2023-03-16T23:39:31;9.60;39.30
431;DHT22;202;48.764;9.172;2023-03-16T23:41:57;9.50;39.50
431;DHT22;202;48.764;9.172;2023-03-16T23:44:26;9.50;39.20
431;DHT22;202;48.764;9.172;2023-03-16T23:46:53;9.50;39.60
431;DHT22;202;48.764;9.172;2023-03-16T23:49:23;9.50;39.70
431;DHT22;202;48.764;9.172;2023-03-16T23:51:50;9.60;39.90
431;DHT22;202;48.764;9.172;2023-03-16T23:54:20;9.60;39.30
431;DHT22;202;48.764;9.172;2023-03-16T23:56:49;9.50;39.20
431;DHT22;202;48.764;9.172;2023-03-16T23:59:16;9.40;39.20
